sensor_id;sensor_type;location;lat;lon;timestamp;pressure;altitude;pressure_sealevel;temperature;humidity
53689;BME280;39583;54.682;30.662;2022-08-19T06:40:01;100013.25;;;21.60;70.29
53689;BME280;39583;54.682;30.662;2022-08-19T06:42:27;100011.53;;;21.85;70.29
53689;BME280;39583;54.682;30.662;2022-08-19T06:44:53;100008.16;;;22.03;69.37
53689;BME280;39583;54.682;30.662;2022-08-19T06:47:21;100009.50;;;22.16;68.91
53689;BME280;39583;54.682;30.662;2022-08-19T06:49:47;100010.25;;;22.26;68.72
53689;BME280;39583;54.682;30.662;2022-08-19T06:52:14;100015.09;;;22.40;68.07
53689;BME280;39583;54.682;30.662;2022-08-19T06:54:41;100001.94;;;22.42;67.14
53689;BME280;39583;54.682;30.662;2022-08-19T06:57:08;100008.78;;;22.39;66.51
53689;BME280;39583;54.682;30.662;2022-08-19T08:47:28;100020.56;;;24.13;60.97
53689;BME280;39583;54.682;30.662;2022-08-19T08:50:05;100007.97;;;24.50;60.26
53689;BME280;39583;54.682;30.662;2022-08-19T08:52:39;100008.19;;;24.86;60.03
53689;BME280;39583;54.682;30.662;2022-08-19T08:55:19;100017.00;;;25.21;59.19
53689;BME280;39583;54.682;30.662;2022-08-19T09:00:29;100021.75;;;26.53;56.60
53689;BME280;39583;54.682;30.662;2022-08-19T09:02:57;100024.88;;;26.82;55.57
53689;BME280;39583;54.682;30.662;2022-08-19T09:05:49;100030.56;;;26.99;54.71
53689;BME280;39583;54.682;30.662;2022-08-19T09:11:09;100032.69;;;26.58;54.58
53689;BME280;39583;54.682;30.662;2022-08-19T09:16:27;100044.47;;;26.50;54.85
53689;BME280;39583;54.682;30.662;2022-08-19T09:19:01;100038.66;;;26.37;54.12
53689;BME280;39583;54.682;30.662;2022-08-19T09:21:28;100037.84;;;26.23;54.80
53689;BME280;39583;54.682;30.662;2022-08-19T09:23:54;100038.03;;;26.27;54.30
53689;BME280;39583;54.682;30.662;2022-08-19T09:26:22;100037.03;;;26.36;54.26
53689;BME280;39583;54.682;30.662;2022-08-19T09:28:51;100040.19;;;26.30;53.88
53689;BME280;39583;54.682;30.662;2022-08-19T09:31:27;100042.88;;;26.21;54.38
53689;BME280;39583;54.682;30.662;2022-08-19T09:33:54;100041.34;;;26.15;54.42
53689;BME280;39583;54.682;30.662;2022-08-19T09:36:24;100043.78;;;26.16;54.89
53689;BME280;39583;54.682;30.662;2022-08-19T09:38:53;100044.69;;;26.26;54.87
53689;BME280;39583;54.682;30.662;2022-08-19T09:41:20;100037.50;;;26.52;54.29
53689;BME280;39583;54.682;30.662;2022-08-19T09:43:49;100033.50;;;26.81;54.44
53689;BME280;39583;54.682;30.662;2022-08-19T09:46:19;100031.38;;;27.22;52.41
53689;BME280;39583;54.682;30.662;2022-08-19T09:48:47;100033.25;;;27.36;52.10
53689;BME280;39583;54.682;30.662;2022-08-19T09:51:17;100036.34;;;27.43;51.30
53689;BME280;39583;54.682;30.662;2022-08-19T09:53:46;100026.94;;;27.13;51.11
53689;BME280;39583;54.682;30.662;2022-08-19T09:56:17;100029.81;;;26.85;51.28
53689;BME280;39583;54.682;30.662;2022-08-19T09:58:44;100016.91;;;26.81;52.24
53689;BME280;39583;54.682;30.662;2022-08-19T10:01:20;100024.16;;;26.90;51.12
53689;BME280;39583;54.682;30.662;2022-08-19T10:03:49;100022.00;;;26.65;51.93
53689;BME280;39583;54.682;30.662;2022-08-19T10:06:17;100024.69;;;26.20;52.61
53689;BME280;39583;54.682;30.662;2022-08-19T10:08:44;100024.72;;;25.93;53.08
53689;BME280;39583;54.682;30.662;2022-08-19T10:11:11;100033.81;;;25.79;54.00
53689;BME280;39583;54.682;30.662;2022-08-19T10:13:38;100030.94;;;25.84;54.35
53689;BME280;39583;54.682;30.662;2022-08-19T10:16:08;100025.03;;;26.05;53.47
53689;BME280;39583;54.682;30.662;2022-08-19T10:18:36;100028.34;;;26.15;53.18
53689;BME280;39583;54.682;30.662;2022-08-19T10:23:33;100021.47;;;26.27;53.07
53689;BME280;39583;54.682;30.662;2022-08-19T10:26:00;100014.47;;;26.21;53.02
53689;BME280;39583;54.682;30.662;2022-08-19T10:28:26;100005.69;;;26.19;52.87
53689;BME280;39583;54.682;30.662;2022-08-19T10:30:53;100013.84;;;26.10;53.41
53689;BME280;39583;54.682;30.662;2022-08-19T10:33:19;100012.50;;;26.21;53.72
53689;BME280;39583;54.682;30.662;2022-08-19T10:35:45;100019.13;;;26.34;52.62
53689;BME280;39583;54.682;30.662;2022-08-19T10:38:12;100021.09;;;26.20;52.52
53689;BME280;39583;54.682;30.662;2022-08-19T10:40:38;100034.13;;;26.05;53.27
53689;BME280;39583;54.682;30.662;2022-08-19T10:43:05;100019.72;;;25.95;53.03
53689;BME280;39583;54.682;30.662;2022-08-19T10:45:31;100025.84;;;25.92;52.62
53689;BME280;39583;54.682;30.662;2022-08-19T10:47:57;100019.25;;;26.15;52.97
53689;BME280;39583;54.682;30.662;2022-08-19T10:50:23;100020.97;;;26.25;52.61
53689;BME280;39583;54.682;30.662;2022-08-19T10:53:08;100015.34;;;26.66;52.04
53689;BME280;39583;54.682;30.662;2022-08-19T10:55:34;100030.97;;;26.93;50.67
53689;BME280;39583;54.682;30.662;2022-08-19T10:58:21;100040.19;;;27.02;50.12
53689;BME280;39583;54.682;30.662;2022-08-19T11:00:57;100031.09;;;27.01;50.09
53689;BME280;39583;54.682;30.662;2022-08-19T11:03:25;100045.56;;;27.07;49.92
53689;BME280;39583;54.682;30.662;2022-08-19T11:06:03;100043.50;;;27.13;50.19
53689;BME280;39583;54.682;30.662;2022-08-19T11:08:30;100040.78;;;27.21;49.89
53689;BME280;39583;54.682;30.662;2022-08-19T11:10:59;100034.38;;;27.35;49.79
53689;BME280;39583;54.682;30.662;2022-08-19T11:13:35;100022.63;;;27.29;49.92
53689;BME280;39583;54.682;30.662;2022-08-19T11:16:15;100017.25;;;27.24;49.47
53689;BME280;39583;54.682;30.662;2022-08-19T11:18:46;100017.03;;;27.20;49.91
53689;BME280;39583;54.682;30.662;2022-08-19T11:21:15;100019.38;;;27.04;49.08
53689;BME280;39583;54.682;30.662;2022-08-19T11:23:43;100013.41;;;26.89;48.99
53689;BME280;39583;54.682;30.662;2022-08-19T11:26:09;100015.22;;;26.93;49.32
53689;BME280;39583;54.682;30.662;2022-08-19T11:28:36;100017.94;;;26.85;48.99
53689;BME280;39583;54.682;30.662;2022-08-19T11:31:03;100014.13;;;26.72;48.89
53689;BME280;39583;54.682;30.662;2022-08-19T11:33:30;100009.41;;;26.72;49.57
53689;BME280;39583;54.682;30.662;2022-08-19T11:35:58;100006.25;;;26.88;49.25
53689;BME280;39583;54.682;30.662;2022-08-19T11:38:25;100005.94;;;27.12;49.26
53689;BME280;39583;54.682;30.662;2022-08-19T11:40:59;99996.34;;;27.40;48.46
53689;BME280;39583;54.682;30.662;2022-08-19T11:43:27;100006.44;;;27.76;48.06
53689;BME280;39583;54.682;30.662;2022-08-19T11:45:54;99995.41;;;28.02;47.83
53689;BME280;39583;54.682;30.662;2022-08-19T11:48:21;100002.59;;;28.03;46.63
53689;BME280;39583;54.682;30.662;2022-08-19T11:50:52;100005.63;;;27.84;46.38
53689;BME280;39583;54.682;30.662;2022-08-19T11:53:19;100004.44;;;27.68;46.05
53689;BME280;39583;54.682;30.662;2022-08-19T11:55:47;100002.94;;;27.61;46.51
53689;BME280;39583;54.682;30.662;2022-08-19T11:58:14;99999.16;;;27.57;46.26
53689;BME280;39583;54.682;30.662;2022-08-19T12:00:42;99994.84;;;27.65;46.10
53689;BME280;39583;54.682;30.662;2022-08-19T12:03:11;99998.28;;;27.79;45.78
53689;BME280;39583;54.682;30.662;2022-08-19T12:05:39;99995.03;;;27.77;45.91
53689;BME280;39583;54.682;30.662;2022-08-19T12:08:06;99999.75;;;27.77;45.54
53689;BME280;39583;54.682;30.662;2022-08-19T12:10:34;99992.88;;;27.66;45.24
53689;BME280;39583;54.682;30.662;2022-08-19T12:13:01;99999.97;;;27.49;45.80
53689;BME280;39583;54.682;30.662;2022-08-19T12:15:27;99989.53;;;27.15;46.58
53689;BME280;39583;54.682;30.662;2022-08-19T12:17:56;100010.19;;;26.95;47.15
53689;BME280;39583;54.682;30.662;2022-08-19T12:20:23;100009.66;;;26.85;47.29
53689;BME280;39583;54.682;30.662;2022-08-19T12:22:50;100007.22;;;26.83;47.44
53689;BME280;39583;54.682;30.662;2022-08-19T12:25:17;100002.19;;;26.85;47.57
53689;BME280;39583;54.682;30.662;2022-08-19T12:27:43;100000.38;;;27.03;47.53
53689;BME280;39583;54.682;30.662;2022-08-19T12:30:12;99984.97;;;27.11;47.10
53689;BME280;39583;54.682;30.662;2022-08-19T12:32:39;99985.69;;;27.25;47.28
53689;BME280;39583;54.682;30.662;2022-08-19T12:35:07;99991.88;;;27.30;47.21
53689;BME280;39583;54.682;30.662;2022-08-19T12:37:34;99990.19;;;27.12;47.67
53689;BME280;39583;54.682;30.662;2022-08-19T12:40:01;99984.59;;;27.03;48.04
53689;BME280;39583;54.682;30.662;2022-08-19T12:42:28;99979.44;;;26.88;48.21
53689;BME280;39583;54.682;30.662;2022-08-19T12:44:56;99979.03;;;26.72;49.13
53689;BME280;39583;54.682;30.662;2022-08-19T12:47:22;99968.63;;;26.78;49.26
53689;BME280;39583;54.682;30.662;2022-08-19T12:49:48;99959.19;;;26.70;49.23
53689;BME280;39583;54.682;30.662;2022-08-19T12:52:15;99975.19;;;26.60;48.84
53689;BME280;39583;54.682;30.662;2022-08-19T12:54:42;99967.53;;;26.57;48.78
53689;BME280;39583;54.682;30.662;2022-08-19T12:57:10;99969.84;;;26.86;48.46
53689;BME280;39583;54.682;30.662;2022-08-19T12:59:37;99962.38;;;27.17;47.35
53689;BME280;39583;54.682;30.662;2022-08-19T13:02:06;99965.91;;;27.40;47.18
53689;BME280;39583;54.682;30.662;2022-08-19T13:04:34;99958.47;;;27.49;47.01
53689;BME280;39583;54.682;30.662;2022-08-19T13:07:07;99943.94;;;27.35;47.38
53689;BME280;39583;54.682;30.662;2022-08-19T13:09:34;99961.25;;;27.18;47.86
53689;BME280;39583;54.682;30.662;2022-08-19T13:12:01;99964.09;;;26.82;48.76
53689;BME280;39583;54.682;30.662;2022-08-19T13:14:29;99967.16;;;26.72;49.46
53689;BME280;39583;54.682;30.662;2022-08-19T13:16:57;99963.38;;;26.45;49.74
53689;BME280;39583;54.682;30.662;2022-08-19T13:19:23;99963.06;;;26.11;50.06
53689;BME280;39583;54.682;30.662;2022-08-19T13:21:51;99959.41;;;25.88;51.12
53689;BME280;39583;54.682;30.662;2022-08-19T13:24:17;99958.69;;;25.96;51.36
53689;BME280;39583;54.682;30.662;2022-08-19T13:26:44;99958.38;;;26.48;50.58
53689;BME280;39583;54.682;30.662;2022-08-19T13:29:10;99963.22;;;26.95;49.79
53689;BME280;39583;54.682;30.662;2022-08-19T13:31:55;99955.13;;;27.30;49.36
53689;BME280;39583;54.682;30.662;2022-08-19T13:34:39;99958.25;;;27.37;48.79
53689;BME280;39583;54.682;30.662;2022-08-19T13:37:06;99949.81;;;27.42;48.43
53689;BME280;39583;54.682;30.662;2022-08-19T13:39:34;99952.78;;;27.54;48.55
53689;BME280;39583;54.682;30.662;2022-08-19T13:42:01;99942.00;;;27.36;48.37
53689;BME280;39583;54.682;30.662;2022-08-19T13:44:29;99955.19;;;27.08;48.10
53689;BME280;39583;54.682;30.662;2022-08-19T13:47:00;99944.75;;;26.82;48.36
53689;BME280;39583;54.682;30.662;2022-08-19T13:49:29;99942.53;;;26.62;48.58
53689;BME280;39583;54.682;30.662;2022-08-19T13:51:57;99945.22;;;26.53;49.17
53689;BME280;39583;54.682;30.662;2022-08-19T13:54:23;99944.91;;;26.55;48.72
53689;BME280;39583;54.682;30.662;2022-08-19T13:56:50;99937.38;;;26.69;48.30
53689;BME280;39583;54.682;30.662;2022-08-19T13:59:16;99939.63;;;26.67;48.38
53689;BME280;39583;54.682;30.662;2022-08-19T14:01:43;99942.78;;;26.74;48.30
53689;BME280;39583;54.682;30.662;2022-08-19T14:04:09;99949.63;;;26.77;48.73
53689;BME280;39583;54.682;30.662;2022-08-19T14:06:36;99939.56;;;26.81;48.19
53689;BME280;39583;54.682;30.662;2022-08-19T14:09:03;99929.88;;;26.92;48.11
53689;BME280;39583;54.682;30.662;2022-08-19T14:11:30;99927.69;;;27.02;48.06
53689;BME280;39583;54.682;30.662;2022-08-19T14:13:57;99928.88;;;27.10;47.94
53689;BME280;39583;54.682;30.662;2022-08-19T14:16:23;99930.53;;;27.20;47.81
53689;BME280;39583;54.682;30.662;2022-08-19T14:18:50;99931.84;;;27.22;47.36
53689;BME280;39583;54.682;30.662;2022-08-19T14:21:20;99933.50;;;27.23;47.27
53689;BME280;39583;54.682;30.662;2022-08-19T14:23:48;99941.69;;;27.06;47.58
53689;BME280;39583;54.682;30.662;2022-08-19T14:26:16;99938.63;;;26.85;48.67
53689;BME280;39583;54.682;30.662;2022-08-19T14:28:44;99930.03;;;26.87;48.41
53689;BME280;39583;54.682;30.662;2022-08-19T14:31:15;99927.81;;;26.97;48.36
53689;BME280;39583;54.682;30.662;2022-08-19T14:33:48;99925.03;;;27.28;48.09
53689;BME280;39583;54.682;30.662;2022-08-19T14:36:14;99927.91;;;27.63;48.34
53689;BME280;39583;54.682;30.662;2022-08-19T14:38:41;99924.56;;;27.75;47.88
53689;BME280;39583;54.682;30.662;2022-08-19T14:43:43;99946.09;;;26.85;48.60
53689;BME280;39583;54.682;30.662;2022-08-19T14:46:12;99947.13;;;26.30;49.73
53689;BME280;39583;54.682;30.662;2022-08-19T14:48:39;99950.31;;;25.87;50.95
53689;BME280;39583;54.682;30.662;2022-08-19T14:51:05;99952.59;;;25.58;51.45
53689;BME280;39583;54.682;30.662;2022-08-19T14:53:32;99941.25;;;25.32;52.01
53689;BME280;39583;54.682;30.662;2022-08-19T14:56:00;99941.94;;;25.10;52.93
53689;BME280;39583;54.682;30.662;2022-08-19T14:58:27;99944.97;;;24.95;53.43
53689;BME280;39583;54.682;30.662;2022-08-19T15:00:54;99948.00;;;24.80;54.44
53689;BME280;39583;54.682;30.662;2022-08-19T15:03:20;99945.22;;;24.66;54.77
53689;BME280;39583;54.682;30.662;2022-08-19T15:05:46;99952.09;;;24.50;55.40
53689;BME280;39583;54.682;30.662;2022-08-19T15:08:12;99951.72;;;24.37;55.86
53689;BME280;39583;54.682;30.662;2022-08-19T15:10:39;99956.53;;;24.27;56.67
53689;BME280;39583;54.682;30.662;2022-08-19T15:13:05;99947.00;;;24.19;57.14
53689;BME280;39583;54.682;30.662;2022-08-19T15:15:32;99948.53;;;24.11;57.68
53689;BME280;39583;54.682;30.662;2022-08-19T15:17:58;99932.66;;;24.03;57.81
53689;BME280;39583;54.682;30.662;2022-08-19T15:20:29;99940.19;;;23.98;57.88
53689;BME280;39583;54.682;30.662;2022-08-19T15:22:55;99946.56;;;23.93;58.32
53689;BME280;39583;54.682;30.662;2022-08-19T15:25:22;99953.56;;;23.86;58.50
53689;BME280;39583;54.682;30.662;2022-08-19T15:27:49;99948.41;;;23.79;58.84
53689;BME280;39583;54.682;30.662;2022-08-19T15:30:24;99945.22;;;23.72;58.96
53689;BME280;39583;54.682;30.662;2022-08-19T15:32:51;99941.19;;;23.64;58.85
53689;BME280;39583;54.682;30.662;2022-08-19T15:35:18;99941.78;;;23.61;58.92
53689;BME280;39583;54.682;30.662;2022-08-19T15:37:49;99947.28;;;23.56;59.32
53689;BME280;39583;54.682;30.662;2022-08-19T15:40:15;99938.00;;;23.52;59.15
53689;BME280;39583;54.682;30.662;2022-08-19T15:42:42;99940.22;;;23.50;59.17
53689;BME280;39583;54.682;30.662;2022-08-19T15:45:11;99941.66;;;23.47;59.39
53689;BME280;39583;54.682;30.662;2022-08-19T15:47:38;99935.03;;;23.48;59.47
53689;BME280;39583;54.682;30.662;2022-08-19T15:50:07;99944.91;;;23.49;59.65
53689;BME280;39583;54.682;30.662;2022-08-19T15:52:34;99943.81;;;23.50;59.51
53689;BME280;39583;54.682;30.662;2022-08-19T15:55:01;99950.72;;;23.48;60.10
53689;BME280;39583;54.682;30.662;2022-08-19T15:57:28;99945.25;;;23.43;59.73
53689;BME280;39583;54.682;30.662;2022-08-19T15:59:54;99945.84;;;23.40;59.97
53689;BME280;39583;54.682;30.662;2022-08-19T16:02:39;99947.25;;;23.37;60.21
53689;BME280;39583;54.682;30.662;2022-08-19T16:05:25;99948.38;;;23.36;60.38
53689;BME280;39583;54.682;30.662;2022-08-19T16:08:10;99945.13;;;23.29;60.66
53689;BME280;39583;54.682;30.662;2022-08-19T16:10:37;99964.06;;;23.31;60.62
53689;BME280;39583;54.682;30.662;2022-08-19T16:13:04;99956.94;;;23.30;60.58
53689;BME280;39583;54.682;30.662;2022-08-19T16:15:31;99952.56;;;23.29;60.66
53689;BME280;39583;54.682;30.662;2022-08-19T16:17:59;99952.94;;;23.22;60.93
53689;BME280;39583;54.682;30.662;2022-08-19T16:20:29;99957.84;;;23.25;60.77
53689;BME280;39583;54.682;30.662;2022-08-19T16:22:57;99956.50;;;23.22;61.18
53689;BME280;39583;54.682;30.662;2022-08-19T16:25:24;99958.47;;;23.17;60.97
53689;BME280;39583;54.682;30.662;2022-08-19T16:27:54;99964.53;;;23.14;61.30
53689;BME280;39583;54.682;30.662;2022-08-19T16:30:20;99960.97;;;23.13;61.22
53689;BME280;39583;54.682;30.662;2022-08-19T16:32:46;99960.75;;;23.10;61.14
53689;BME280;39583;54.682;30.662;2022-08-19T16:35:13;99959.97;;;23.04;60.87
53689;BME280;39583;54.682;30.662;2022-08-19T16:37:39;99961.94;;;22.99;60.96
53689;BME280;39583;54.682;30.662;2022-08-19T16:40:06;99955.97;;;22.91;60.86
53689;BME280;39583;54.682;30.662;2022-08-19T16:42:34;99964.22;;;22.91;60.50
53689;BME280;39583;54.682;30.662;2022-08-19T16:45:02;99959.00;;;22.90;60.30
53689;BME280;39583;54.682;30.662;2022-08-19T16:47:29;99962.88;;;22.89;60.20
53689;BME280;39583;54.682;30.662;2022-08-19T16:49:55;99960.94;;;22.89;59.65
53689;BME280;39583;54.682;30.662;2022-08-19T16:52:22;99959.31;;;22.88;59.21
53689;BME280;39583;54.682;30.662;2022-08-19T16:54:52;99964.78;;;22.88;59.06
53689;BME280;39583;54.682;30.662;2022-08-19T16:57:18;99961.00;;;22.84;59.18
53689;BME280;39583;54.682;30.662;2022-08-19T16:59:45;99967.31;;;22.85;58.82
53689;BME280;39583;54.682;30.662;2022-08-19T17:02:11;99965.94;;;22.82;58.69
53689;BME280;39583;54.682;30.662;2022-08-19T17:04:38;99962.94;;;22.79;58.53
53689;BME280;39583;54.682;30.662;2022-08-19T17:07:04;99962.41;;;22.77;58.64
53689;BME280;39583;54.682;30.662;2022-08-19T17:09:31;99961.88;;;22.75;58.64
53689;BME280;39583;54.682;30.662;2022-08-19T17:11:57;99963.56;;;22.71;58.75
53689;BME280;39583;54.682;30.662;2022-08-19T17:14:23;99961.94;;;22.64;58.65
53689;BME280;39583;54.682;30.662;2022-08-19T17:16:50;99952.38;;;22.62;58.95
53689;BME280;39583;54.682;30.662;2022-08-19T17:19:16;99963.94;;;22.59;58.97
53689;BME280;39583;54.682;30.662;2022-08-19T17:21:43;99959.53;;;22.58;58.86
53689;BME280;39583;54.682;30.662;2022-08-19T17:24:09;99962.88;;;22.55;58.79
53689;BME280;39583;54.682;30.662;2022-08-19T17:26:36;99963.41;;;22.52;58.96
53689;BME280;39583;54.682;30.662;2022-08-19T17:29:03;99955.25;;;22.47;59.01
53689;BME280;39583;54.682;30.662;2022-08-19T17:31:31;99960.22;;;22.40;59.49
53689;BME280;39583;54.682;30.662;2022-08-19T17:33:58;99958.69;;;22.28;59.67
53689;BME280;39583;54.682;30.662;2022-08-19T17:36:26;99957.94;;;22.18;59.79
53689;BME280;39583;54.682;30.662;2022-08-19T17:38:56;99954.41;;;22.07;60.17
53689;BME280;39583;54.682;30.662;2022-08-19T17:41:25;99952.81;;;21.96;60.42
53689;BME280;39583;54.682;30.662;2022-08-19T17:43:53;99956.41;;;21.86;60.69
53689;BME280;39583;54.682;30.662;2022-08-19T17:46:20;99945.00;;;21.69;61.09
53689;BME280;39583;54.682;30.662;2022-08-19T17:48:48;99951.34;;;21.64;61.40
53689;BME280;39583;54.682;30.662;2022-08-19T17:53:53;99954.44;;;21.42;61.85
53689;BME280;39583;54.682;30.662;2022-08-19T17:56:20;99952.28;;;21.29;62.10
53689;BME280;39583;54.682;30.662;2022-08-19T17:58:46;99949.53;;;21.19;62.69
53689;BME280;39583;54.682;30.662;2022-08-19T18:01:14;99957.75;;;21.09;62.79
53689;BME280;39583;54.682;30.662;2022-08-19T18:03:41;99955.34;;;20.97;63.32
53689;BME280;39583;54.682;30.662;2022-08-19T18:06:09;99959.47;;;20.84;63.72
53689;BME280;39583;54.682;30.662;2022-08-19T18:08:36;99967.13;;;20.72;64.13
53689;BME280;39583;54.682;30.662;2022-08-19T18:11:06;99973.16;;;20.64;64.60
53689;BME280;39583;54.682;30.662;2022-08-19T18:13:33;99981.09;;;20.60;64.78
53689;BME280;39583;54.682;30.662;2022-08-19T18:16:01;99988.19;;;20.61;64.89
53689;BME280;39583;54.682;30.662;2022-08-19T18:18:28;99994.50;;;20.62;65.03
